Time;durP1;ratioP1;P1;durP2;ratioP2;P2;SDS_P1;SDS_P2;PMS_P1;PMS_P2;Temp;Humidity;BMP_temperature;BMP_pressure;BME280_temperature;BME280_humidity;BME280_pressure;Samples;Min_cycle;Max_cycle;Signal;HPM_P1;HPM_P2
2023/04/28 00:00:05;;;;;;;8.52;5.20;;;;;;;;;;5098475;28;20048;-63
2023/04/28 00:02:31;;;;;;;7.07;4.90;;;;;;;;;;5099120;28;20048;-63
2023/04/28 00:04:58;;;;;;;7.80;5.57;;;;;;;;;;5098726;28;20055;-63
2023/04/28 00:07:26;;;;;;;5.95;4.63;;;;;;;;;;5098730;28;20044;-63
2023/04/28 00:09:52;;;;;;;5.60;4.68;;;;;;;;;;5098488;28;20056;-63
2023/04/28 00:12:19;;;;;;;7.22;4.65;;;;;;;;;;5098412;28;20135;-63
2023/04/28 00:14:46;;;;;;;5.80;4.53;;;;;;;;;;5098439;28;20048;-63
2023/04/28 00:17:12;;;;;;;7.60;4.60;;;;;;;;;;5097545;28;20051;-63
2023/04/28 00:19:39;;;;;;;7.70;5.00;;;;;;;;;;5097234;28;20048;-63
2023/04/28 00:22:05;;;;;;;9.65;5.18;;;;;;;;;;5097909;28;20059;-63
2023/04/28 00:24:35;;;;;;;8.60;5.00;;;;;;;;;;5097371;28;20059;-63
2023/04/28 00:27:02;;;;;;;6.15;4.50;;;;;;;;;;5097467;28;20139;-63
2023/04/28 00:29:29;;;;;;;6.20;4.25;;;;;;;;;;5096379;28;20070;-63
2023/04/28 00:31:56;;;;;;;7.95;5.03;;;;;;;;;;5096914;28;20473;-63
2023/04/28 00:34:22;;;;;;;6.72;5.00;;;;;;;;;;5098181;28;20052;-62
2023/04/28 00:36:49;;;;;;;5.65;4.80;;;;;;;;;;5097613;28;20044;-63
2023/04/28 00:39:17;;;;;;;7.40;5.22;;;;;;;;;;5098211;28;20083;-63
2023/04/28 00:41:45;;;;;;;7.55;4.65;;;;;;;;;;5098198;28;20044;-63
2023/04/28 00:44:11;;;;;;;6.35;5.05;;;;;;;;;;5097313;28;20516;-63
2023/04/28 00:46:38;;;;;;;7.80;4.40;;;;;;;;;;5097036;28;20055;-62
2023/04/28 00:49:05;;;;;;;6.18;4.78;;;;;;;;;;5096780;28;20420;-62
2023/04/28 00:51:32;;;;;;;8.73;4.60;;;;;;;;;;5097252;28;20101;-63
2023/04/28 00:54:00;;;;;;;7.85;4.57;;;;;;;;;;5096731;28;20071;-63
2023/04/28 00:56:29;;;;;;;7.20;4.63;;;;;;;;;;5096436;28;20054;-63
2023/04/28 00:58:57;;;;;;;9.07;5.00;;;;;;;;;;5096146;28;20044;-63
2023/04/28 01:01:27;;;;;;;6.47;5.22;;;;;;;;;;5095486;28;20353;-63
2023/04/28 01:03:53;;;;;;;5.03;4.10;;;;;;;;;;5096150;28;20059;-63
2023/04/28 01:06:20;;;;;;;6.43;5.00;;;;;;;;;;5095563;28;20047;-63
2023/04/28 01:08:49;;;;;;;6.57;4.88;;;;;;;;;;5095413;28;20050;-63
2023/04/28 01:11:16;;;;;;;6.70;4.10;;;;;;;;;;5095213;28;20101;-63
2023/04/28 01:13:42;;;;;;;6.53;4.72;;;;;;;;;;5095542;28;20048;-63
2023/04/28 01:16:11;;;;;;;6.75;4.60;;;;;;;;;;5095965;28;20044;-63
2023/04/28 01:18:38;;;;;;;7.95;4.78;;;;;;;;;;5095464;28;20055;-63
2023/04/28 01:21:05;;;;;;;5.80;4.63;;;;;;;;;;5095428;28;20044;-63
2023/04/28 01:23:32;;;;;;;5.90;4.50;;;;;;;;;;5096599;28;20048;-63
2023/04/28 01:26:00;;;;;;;6.05;4.88;;;;;;;;;;5097251;28;20056;-63
2023/04/28 01:28:27;;;;;;;6.13;4.30;;;;;;;;;;5095983;28;20058;-64
2023/04/28 01:30:55;;;;;;;5.80;4.65;;;;;;;;;;5095657;28;20051;-63
2023/04/28 01:33:21;;;;;;;6.72;5.13;;;;;;;;;;5096403;28;20050;-63
2023/04/28 01:35:48;;;;;;;5.53;4.53;;;;;;;;;;5096518;28;20044;-63
2023/04/28 01:38:15;;;;;;;6.95;5.00;;;;;;;;;;5095836;28;20446;-64
2023/04/28 01:40:42;;;;;;;7.18;4.60;;;;;;;;;;5095867;28;20476;-63
2023/04/28 01:43:10;;;;;;;8.40;4.70;;;;;;;;;;5095719;28;20046;-63
2023/04/28 01:45:36;;;;;;;6.15;4.65;;;;;;;;;;5095794;28;20044;-63
2023/04/28 01:48:03;;;;;;;5.50;4.90;;;;;;;;;;5095363;28;20051;-63
2023/04/28 01:50:30;;;;;;;7.60;4.53;;;;;;;;;;5095405;28;20055;-63
2023/04/28 01:52:56;;;;;;;7.47;4.57;;;;;;;;;;5095335;28;20040;-64
2023/04/28 01:55:23;;;;;;;6.55;4.93;;;;;;;;;;5096588;28;20516;-63
2023/04/28 01:57:49;;;;;;;5.63;4.82;;;;;;;;;;5097032;28;20050;-64
2023/04/28 02:00:18;;;;;;;5.95;4.78;;;;;;;;;;5097112;28;20586;-64
2023/04/28 02:02:44;;;;;;;6.25;4.93;;;;;;;;;;5096123;28;20047;-63
2023/04/28 02:05:11;;;;;;;6.43;4.97;;;;;;;;;;5096822;28;20072;-63
2023/04/28 02:07:38;;;;;;;7.10;5.47;;;;;;;;;;5096224;28;20055;-64
2023/04/28 02:10:05;;;;;;;7.65;5.45;;;;;;;;;;5096909;28;20067;-63
2023/04/28 02:12:32;;;;;;;7.10;5.50;;;;;;;;;;5097195;28;20055;-63
2023/04/28 02:14:58;;;;;;;8.75;5.57;;;;;;;;;;5096665;28;20050;-62
2023/04/28 02:17:26;;;;;;;7.38;5.45;;;;;;;;;;5096333;28;20102;-63
2023/04/28 02:19:55;;;;;;;8.70;5.68;;;;;;;;;;5095230;28;20044;-63
2023/04/28 02:22:22;;;;;;;9.05;5.43;;;;;;;;;;5094790;28;20047;-63
2023/04/28 02:24:48;;;;;;;7.20;5.32;;;;;;;;;;5095058;28;20048;-63
2023/04/28 02:27:15;;;;;;;6.65;5.18;;;;;;;;;;5095700;28;20040;-64
2023/04/28 02:29:41;;;;;;;8.23;5.53;;;;;;;;;;5096413;28;20050;-63
2023/04/28 02:32:08;;;;;;;7.78;5.20;;;;;;;;;;5096526;28;20117;-63
2023/04/28 02:34:36;;;;;;;6.80;5.40;;;;;;;;;;5096768;28;20048;-63
2023/04/28 02:37:03;;;;;;;7.47;5.78;;;;;;;;;;5095460;28;20048;-64
2023/04/28 02:39:31;;;;;;;9.98;5.57;;;;;;;;;;5095736;28;20055;-64
2023/04/28 02:41:58;;;;;;;7.30;6.07;;;;;;;;;;5096905;28;20477;-63
2023/04/28 02:44:25;;;;;;;7.68;5.35;;;;;;;;;;5096937;28;20047;-63
2023/04/28 02:46:52;;;;;;;8.73;6.13;;;;;;;;;;5096301;28;20041;-63
2023/04/28 02:49:18;;;;;;;7.95;5.45;;;;;;;;;;5097774;28;20061;-64
2023/04/28 02:51:46;;;;;;;10.18;5.25;;;;;;;;;;5099605;28;20044;-63
2023/04/28 02:54:13;;;;;;;7.10;5.57;;;;;;;;;;5098867;28;20046;-64
2023/04/28 02:56:40;;;;;;;7.47;5.30;;;;;;;;;;5099062;28;20060;-63
2023/04/28 02:59:06;;;;;;;9.93;5.32;;;;;;;;;;5098676;28;20044;-63
2023/04/28 03:01:33;;;;;;;9.48;5.15;;;;;;;;;;5099658;28;20048;-63
2023/04/28 03:03:59;;;;;;;6.55;5.80;;;;;;;;;;5099597;28;20055;-64
2023/04/28 03:06:27;;;;;;;6.78;5.30;;;;;;;;;;5099048;28;20131;-63
2023/04/28 03:08:55;;;;;;;8.45;5.75;;;;;;;;;;5099334;28;20067;-64
2023/04/28 03:11:21;;;;;;;7.82;5.43;;;;;;;;;;5099015;28;20044;-63
2023/04/28 03:13:48;;;;;;;10.40;5.18;;;;;;;;;;5098403;28;20044;-63
2023/04/28 03:16:14;;;;;;;8.15;6.28;;;;;;;;;;5097984;28;20383;-63
2023/04/28 03:18:41;;;;;;;8.48;5.90;;;;;;;;;;5098272;28;20485;-63
2023/04/28 03:21:08;;;;;;;7.32;5.82;;;;;;;;;;5097834;28;20048;-63
2023/04/28 03:23:35;;;;;;;7.95;6.10;;;;;;;;;;5098130;28;20048;-63
2023/04/28 03:26:03;;;;;;;6.45;5.70;;;;;;;;;;5097722;28;20048;-64
2023/04/28 03:28:29;;;;;;;8.82;6.03;;;;;;;;;;5098542;28;20048;-63
2023/04/28 03:30:56;;;;;;;8.23;5.78;;;;;;;;;;5097540;28;20048;-63
2023/04/28 03:33:23;;;;;;;7.97;6.57;;;;;;;;;;5098028;28;20055;-63
2023/04/28 03:35:49;;;;;;;7.90;5.53;;;;;;;;;;5097798;28;20048;-63
2023/04/28 03:38:16;;;;;;;8.65;5.80;;;;;;;;;;5098286;28;20463;-63
2023/04/28 03:40:42;;;;;;;9.55;6.60;;;;;;;;;;5097703;28;20142;-64
2023/04/28 03:43:10;;;;;;;8.43;6.20;;;;;;;;;;5097355;28;20044;-63
2023/04/28 03:45:37;;;;;;;8.85;5.93;;;;;;;;;;5096959;28;20050;-63
2023/04/28 03:48:04;;;;;;;9.50;6.40;;;;;;;;;;5097546;28;20048;-63
2023/04/28 03:50:31;;;;;;;9.05;6.30;;;;;;;;;;5097396;28;20050;-63
2023/04/28 03:52:58;;;;;;;7.28;5.85;;;;;;;;;;5098684;28;20076;-64
2023/04/28 03:55:25;;;;;;;7.60;5.97;;;;;;;;;;5097915;28;20127;-64
2023/04/28 03:57:52;;;;;;;10.15;6.40;;;;;;;;;;5098680;28;20044;-64
2023/04/28 04:00:20;;;;;;;8.15;5.97;;;;;;;;;;5096864;28;20052;-63
2023/04/28 04:02:47;;;;;;;9.35;6.18;;;;;;;;;;5097604;28;20420;-63
2023/04/28 04:05:13;;;;;;;8.75;5.97;;;;;;;;;;5097826;28;20044;-63
2023/04/28 04:07:40;;;;;;;13.82;10.10;;;;;;;;;;5098569;28;20397;-64
2023/04/28 04:10:08;;;;;;;8.13;6.80;;;;;;;;;;5097959;28;20097;-64
2023/04/28 04:12:34;;;;;;;8.73;6.43;;;;;;;;;;5096591;28;20054;-63
2023/04/28 04:15:01;;;;;;;8.02;6.07;;;;;;;;;;5097484;28;20054;-64
2023/04/28 04:17:29;;;;;;;8.30;5.82;;;;;;;;;;5097138;28;20044;-63
2023/04/28 04:19:56;;;;;;;9.43;6.75;;;;;;;;;;5096877;28;20079;-63
2023/04/28 04:22:22;;;;;;;12.55;7.20;;;;;;;;;;5096457;28;20051;-63
2023/04/28 04:24:49;;;;;;;11.23;7.30;;;;;;;;;;5096803;28;20087;-64
2023/04/28 04:27:16;;;;;;;12.18;7.07;;;;;;;;;;5096501;28;20052;-63
2023/04/28 04:29:43;;;;;;;9.88;6.85;;;;;;;;;;5098017;28;20048;-63
2023/04/28 04:32:09;;;;;;;8.63;6.53;;;;;;;;;;5097103;28;20052;-64
2023/04/28 04:34:37;;;;;;;10.10;6.72;;;;;;;;;;5096307;28;20071;-63
2023/04/28 04:37:04;;;;;;;11.70;6.97;;;;;;;;;;5095571;28;20408;-63
2023/04/28 04:39:30;;;;;;;11.48;7.00;;;;;;;;;;5097211;28;20040;-63
2023/04/28 04:41:57;;;;;;;10.63;7.18;;;;;;;;;;5095627;28;20044;-64
2023/04/28 04:44:24;;;;;;;8.75;6.72;;;;;;;;;;5095923;28;20130;-63
2023/04/28 04:46:51;;;;;;;9.38;7.07;;;;;;;;;;5096434;28;20051;-63
2023/04/28 04:49:17;;;;;;;9.55;6.40;;;;;;;;;;5096843;28;20044;-63
2023/04/28 04:51:45;;;;;;;10.38;6.72;;;;;;;;;;5097010;28;20127;-63
2023/04/28 04:54:12;;;;;;;9.13;6.75;;;;;;;;;;5121567;22;20039;-70
2023/04/28 04:56:38;;;;;;;9.88;6.57;;;;;;;;;;5111785;28;20048;-70
2023/04/28 04:59:05;;;;;;;9.18;6.18;;;;;;;;;;5111105;28;20408;-71
2023/04/28 05:01:31;;;;;;;8.63;6.55;;;;;;;;;;5111475;28;20047;-70
2023/04/28 05:03:58;;;;;;;9.43;6.78;;;;;;;;;;5110812;28;20051;-70
2023/04/28 05:06:25;;;;;;;13.60;7.18;;;;;;;;;;5111059;28;20047;-70
2023/04/28 05:08:52;;;;;;;10.88;7.20;;;;;;;;;;5110295;28;20047;-70
2023/04/28 05:11:19;;;;;;;10.52;7.25;;;;;;;;;;5110916;28;20051;-70
2023/04/28 05:13:46;;;;;;;9.38;7.03;;;;;;;;;;5110600;28;20443;-70
2023/04/28 05:16:12;;;;;;;9.82;7.13;;;;;;;;;;5110920;28;20507;-70
2023/04/28 05:18:39;;;;;;;9.18;6.85;;;;;;;;;;5110402;28;20053;-70
2023/04/28 05:21:06;;;;;;;12.45;7.32;;;;;;;;;;5110687;28;20067;-70
2023/04/28 05:23:32;;;;;;;11.73;7.55;;;;;;;;;;5110157;28;20047;-70
2023/04/28 05:26:01;;;;;;;11.93;8.32;;;;;;;;;;5110682;28;20319;-70
2023/04/28 05:28:28;;;;;;;12.82;8.35;;;;;;;;;;5110614;28;20043;-70
2023/04/28 05:30:55;;;;;;;10.57;8.20;;;;;;;;;;5110603;28;20081;-70
2023/04/28 05:33:22;;;;;;;9.63;7.50;;;;;;;;;;5110475;28;20083;-70
2023/04/28 05:35:49;;;;;;;11.80;7.78;;;;;;;;;;5104468;28;20039;-70
2023/04/28 05:38:16;;;;;;;10.00;7.50;;;;;;;;;;5097272;28;20048;-71
2023/04/28 05:40:42;;;;;;;12.38;8.13;;;;;;;;;;5104440;28;20050;-70
2023/04/28 05:43:10;;;;;;;10.45;6.90;;;;;;;;;;5103618;28;20051;-70
2023/04/28 05:45:38;;;;;;;9.25;6.88;;;;;;;;;;5091265;28;20418;-71
2023/04/28 05:48:05;;;;;;;10.68;8.18;;;;;;;;;;5101154;28;20071;-70
2023/04/28 05:50:31;;;;;;;9.50;7.03;;;;;;;;;;5091160;28;20048;-70
2023/04/28 05:52:58;;;;;;;10.57;6.70;;;;;;;;;;5089478;28;20135;-71
2023/04/28 05:55:25;;;;;;;9.35;6.68;;;;;;;;;;5093367;28;20041;-71
2023/04/28 05:57:53;;;;;;;9.55;6.85;;;;;;;;;;5089474;28;20044;-70
2023/04/28 06:00:21;;;;;;;8.00;6.25;;;;;;;;;;5103230;28;20054;-71
2023/04/28 06:02:48;;;;;;;7.13;5.68;;;;;;;;;;5089669;28;20044;-71
2023/04/28 06:05:14;;;;;;;6.03;5.25;;;;;;;;;;5092122;28;20512;-70
2023/04/28 06:07:41;;;;;;;7.68;5.93;;;;;;;;;;5101028;28;20047;-70
2023/04/28 06:10:08;;;;;;;6.55;5.50;;;;;;;;;;5108019;28;20044;-71
2023/04/28 06:12:35;;;;;;;8.27;6.47;;;;;;;;;;5099500;28;20078;-70
2023/04/28 06:15:02;;;;;;;7.88;6.18;;;;;;;;;;5095760;28;20040;-70
2023/04/28 06:17:31;;;;;;;7.57;6.30;;;;;;;;;;5089226;28;20048;-71
2023/04/28 06:19:58;;;;;;;6.90;5.65;;;;;;;;;;5089469;28;20525;-70
2023/04/28 06:22:24;;;;;;;8.05;5.80;;;;;;;;;;5109263;28;20127;-70
2023/04/28 06:24:51;;;;;;;7.30;5.88;;;;;;;;;;5108299;28;20043;-70
2023/04/28 06:27:17;;;;;;;6.63;5.30;;;;;;;;;;5091786;28;20040;-70
2023/04/28 06:29:44;;;;;;;7.78;5.38;;;;;;;;;;5092718;28;20051;-70
2023/04/28 06:32:11;;;;;;;6.63;4.60;;;;;;;;;;5092183;28;20048;-71
2023/04/28 06:34:39;;;;;;;5.43;4.65;;;;;;;;;;5092961;28;20059;-70
2023/04/28 06:37:06;;;;;;;7.85;5.32;;;;;;;;;;5097572;28;20158;-71
2023/04/28 06:39:32;;;;;;;6.30;4.85;;;;;;;;;;5092562;28;20044;-70
2023/04/28 06:42:00;;;;;;;8.02;5.07;;;;;;;;;;5107251;28;20130;-71
2023/04/28 06:44:27;;;;;;;8.05;5.38;;;;;;;;;;5113349;28;20047;-71
2023/04/28 06:46:53;;;;;;;7.55;5.55;;;;;;;;;;5113106;28;20403;-70
2023/04/28 06:49:20;;;;;;;6.50;4.97;;;;;;;;;;5112849;28;20677;-70
2023/04/28 06:51:48;;;;;;;7.05;5.22;;;;;;;;;;5101850;28;20215;-70
2023/04/28 06:54:15;;;;;;;7.05;4.90;;;;;;;;;;5095420;28;20044;-70
2023/04/28 06:56:42;;;;;;;7.32;4.97;;;;;;;;;;5093461;28;20131;-70
2023/04/28 06:59:08;;;;;;;7.03;5.65;;;;;;;;;;5097121;28;20470;-70
2023/04/28 07:01:35;;;;;;;6.63;5.50;;;;;;;;;;5093843;28;20076;-70
2023/04/28 07:04:02;;;;;;;6.50;4.43;;;;;;;;;;5100848;28;20123;-70
2023/04/28 07:06:30;;;;;;;6.78;5.28;;;;;;;;;;5097976;28;20046;-70
2023/04/28 07:08:58;;;;;;;6.60;4.25;;;;;;;;;;5112556;27;20492;-70
2023/04/28 07:11:25;;;;;;;5.93;4.55;;;;;;;;;;5112195;28;20407;-70
2023/04/28 07:13:51;;;;;;;4.40;3.85;;;;;;;;;;5113311;28;20465;-71
2023/04/28 07:16:18;;;;;;;5.10;3.72;;;;;;;;;;5108588;28;20061;-70
2023/04/28 07:18:45;;;;;;;5.25;3.65;;;;;;;;;;5102169;28;20048;-70
2023/04/28 07:21:11;;;;;;;5.90;4.18;;;;;;;;;;5105567;28;20344;-71
2023/04/28 07:23:39;;;;;;;4.75;3.80;;;;;;;;;;5098151;28;20495;-70
2023/04/28 07:26:07;;;;;;;4.03;3.28;;;;;;;;;;5092987;28;20050;-73
2023/04/28 07:28:34;;;;;;;6.72;3.35;;;;;;;;;;5097613;28;20245;-73
2023/04/28 07:31:00;;;;;;;3.15;2.05;;;;;;;;;;5095825;28;20054;-73
2023/04/28 07:33:27;;;;;;;2.33;2.08;;;;;;;;;;5088591;28;20051;-69
2023/04/28 07:35:53;;;;;;;1.80;1.50;;;;;;;;;;5093549;28;20048;-69
2023/04/28 07:38:20;;;;;;;2.75;1.70;;;;;;;;;;5092453;28;20048;-69
2023/04/28 07:40:48;;;;;;;1.73;1.30;;;;;;;;;;5111350;28;20048;-69
2023/04/28 07:43:16;;;;;;;1.63;1.42;;;;;;;;;;5111574;28;20044;-69
2023/04/28 07:45:47;;;;;;;2.40;1.40;;;;;;;;;;5111782;28;20052;-68
2023/04/28 07:48:14;;;;;;;1.85;1.50;;;;;;;;;;5109168;28;20477;-70
2023/04/28 07:50:41;;;;;;;1.75;1.63;;;;;;;;;;5111348;28;20048;-69
2023/04/28 07:53:07;;;;;;;1.83;1.45;;;;;;;;;;5110575;28;20054;-69
2023/04/28 07:55:34;;;;;;;2.95;1.80;;;;;;;;;;5100220;28;20043;-67
2023/04/28 07:58:01;;;;;;;3.28;2.03;;;;;;;;;;5101235;28;20044;-70
2023/04/28 08:00:29;;;;;;;1.60;1.50;;;;;;;;;;5099513;28;20071;-69
2023/04/28 08:02:56;;;;;;;2.90;1.48;;;;;;;;;;5098841;28;20044;-69
2023/04/28 08:05:23;;;;;;;1.80;1.30;;;;;;;;;;5102046;28;20044;-68
2023/04/28 08:07:49;;;;;;;2.05;1.65;;;;;;;;;;5088958;28;20047;-69
2023/04/28 08:10:16;;;;;;;2.35;2.00;;;;;;;;;;5106082;28;20055;-69
2023/04/28 08:12:44;;;;;;;2.13;1.50;;;;;;;;;;5092554;28;20518;-71
2023/04/28 08:15:11;;;;;;;3.90;1.95;;;;;;;;;;5090946;28;20044;-69
2023/04/28 08:17:39;;;;;;;3.10;1.60;;;;;;;;;;5090395;28;20048;-73
2023/04/28 08:20:07;;;;;;;1.98;1.40;;;;;;;;;;5099788;28;20134;-70
2023/04/28 08:22:34;;;;;;;1.75;1.63;;;;;;;;;;5110643;28;20052;-69
2023/04/28 08:25:01;;;;;;;2.30;1.75;;;;;;;;;;5106574;28;20055;-68
2023/04/28 08:27:27;;;;;;;2.17;1.58;;;;;;;;;;5090338;28;20044;-68
2023/04/28 08:29:54;;;;;;;3.05;1.70;;;;;;;;;;5090474;28;20040;-69
2023/04/28 08:32:21;;;;;;;2.28;1.80;;;;;;;;;;5091056;28;20063;-69
2023/04/28 08:34:49;;;;;;;1.45;1.35;;;;;;;;;;5097548;28;20044;-69
2023/04/28 08:37:15;;;;;;;2.10;1.50;;;;;;;;;;5093754;28;20040;-71
2023/04/28 08:39:42;;;;;;;1.60;1.50;;;;;;;;;;5090558;28;20048;-72
2023/04/28 08:42:09;;;;;;;2.83;1.73;;;;;;;;;;5103357;28;20047;-69
2023/04/28 08:44:38;;;;;;;1.92;1.35;;;;;;;;;;5099125;27;20167;-70
2023/04/28 08:47:11;;;;;;;1.08;1.00;;;;;;;;;;5089049;28;20048;-69
2023/04/28 08:49:39;;;;;;;1.27;1.17;;;;;;;;;;5090559;28;20044;-70
2023/04/28 08:52:11;;;;;;;1.30;1.13;;;;;;;;;;5101369;28;20523;-70
2023/04/28 08:54:39;;;;;;;1.95;1.48;;;;;;;;;;5110174;28;20119;-72
2023/04/28 08:57:08;;;;;;;3.20;1.98;;;;;;;;;;5098888;28;20095;-71
2023/04/28 08:59:38;;;;;;;1.17;1.08;;;;;;;;;;5107242;28;20073;-71
2023/04/28 09:02:05;;;;;;;1.63;1.35;;;;;;;;;;5090415;28;20052;-73
2023/04/28 09:04:31;;;;;;;1.17;1.08;;;;;;;;;;5098645;28;20058;-69
2023/04/28 09:06:58;;;;;;;1.83;1.30;;;;;;;;;;5097440;28;20415;-72
2023/04/28 09:09:28;;;;;;;2.92;1.30;;;;;;;;;;5110411;28;20048;-69
2023/04/28 09:11:57;;;;;;;1.85;1.30;;;;;;;;;;5109667;28;20093;-71
2023/04/28 09:14:24;;;;;;;1.30;1.15;;;;;;;;;;5102125;28;20489;-69
2023/04/28 09:16:51;;;;;;;1.27;1.17;;;;;;;;;;5096414;28;20090;-67
2023/04/28 09:19:18;;;;;;;1.33;1.10;;;;;;;;;;5089812;28;20496;-66
2023/04/28 09:21:53;;;;;;;1.20;1.10;;;;;;;;;;5093981;28;20637;-67
2023/04/28 09:24:29;;;;;;;1.50;1.25;;;;;;;;;;5092737;28;20055;-67
2023/04/28 09:26:56;;;;;;;1.70;1.23;;;;;;;;;;5089003;28;20093;-67
2023/04/28 09:29:23;;;;;;;1.70;1.17;;;;;;;;;;5106788;28;20450;-68
2023/04/28 09:31:49;;;;;;;1.42;1.33;;;;;;;;;;5110421;28;20052;-67
2023/04/28 09:34:16;;;;;;;1.40;1.25;;;;;;;;;;5105414;28;20078;-67
2023/04/28 09:36:43;;;;;;;4.55;1.50;;;;;;;;;;5085598;28;20036;-68
2023/04/28 09:39:10;;;;;;;1.58;1.48;;;;;;;;;;5088977;28;20043;-69
2023/04/28 09:41:40;;;;;;;2.25;1.63;;;;;;;;;;5088791;28;20048;-69
2023/04/28 09:44:11;;;;;;;1.73;1.60;;;;;;;;;;5095699;28;20036;-69
2023/04/28 09:46:38;;;;;;;2.47;1.60;;;;;;;;;;5097111;28;20386;-70
2023/04/28 09:49:04;;;;;;;1.80;1.70;;;;;;;;;;5098768;28;20044;-70
2023/04/28 09:51:31;;;;;;;1.70;1.60;;;;;;;;;;5089692;28;20074;-69
2023/04/28 09:54:00;;;;;;;2.13;1.80;;;;;;;;;;5088684;28;20098;-70
2023/04/28 09:56:28;;;;;;;3.20;1.80;;;;;;;;;;5089083;28;20064;-70
2023/04/28 09:58:57;;;;;;;2.45;1.70;;;;;;;;;;5098348;28;20051;-70
2023/04/28 10:01:25;;;;;;;1.55;1.33;;;;;;;;;;5105357;28;20044;-70
2023/04/28 10:03:53;;;;;;;1.50;1.40;;;;;;;;;;5093123;28;20240;-70
2023/04/28 10:06:20;;;;;;;2.40;1.48;;;;;;;;;;5104172;28;20055;-70
2023/04/28 10:08:48;;;;;;;1.98;1.45;;;;;;;;;;5110907;28;20035;-70
2023/04/28 10:11:16;;;;;;;1.23;1.10;;;;;;;;;;5092911;28;20050;-71
2023/04/28 10:13:43;;;;;;;2.70;1.40;;;;;;;;;;5098054;28;20052;-70
2023/04/28 10:16:13;;;;;;;2.13;1.20;;;;;;;;;;5099506;28;20443;-70
2023/04/28 10:18:40;;;;;;;1.38;1.23;;;;;;;;;;5104649;28;20130;-70
2023/04/28 10:21:08;;;;;;;1.20;0.95;;;;;;;;;;5099947;28;20040;-70
2023/04/28 10:23:49;;;;;;;1.17;0.95;;;;;;;;;;5103856;28;20131;-74
2023/04/28 10:26:18;;;;;;;1.83;1.10;;;;;;;;;;5112845;28;20044;-74
2023/04/28 10:28:47;;;;;;;2.13;1.10;;;;;;;;;;5100877;28;20052;-75
2023/04/28 10:31:16;;;;;;;1.15;1.00;;;;;;;;;;5090500;28;20650;-75
2023/04/28 10:33:43;;;;;;;2.00;1.73;;;;;;;;;;5093533;28;20119;-76
2023/04/28 10:36:11;;;;;;;1.88;0.90;;;;;;;;;;5112321;28;20069;-76
2023/04/28 10:39:10;;;;;;;2.30;1.45;;;;;;;;;;5111868;28;20048;-75
2023/04/28 10:41:37;;;;;;;1.10;0.80;;;;;;;;;;5092083;28;20070;-75
2023/04/28 10:44:37;;;;;;;1.52;1.13;;;;;;;;;;5096930;28;20050;-75
2023/04/28 10:47:06;;;;;;;1.38;0.90;;;;;;;;;;5096738;28;20050;-74
2023/04/28 10:50:10;;;;;;;1.23;0.80;;;;;;;;;;5098653;28;20047;-74
2023/04/28 10:52:49;;;;;;;1.50;0.90;;;;;;;;;;5109288;22;20071;-62
2023/04/28 10:55:35;;;;;;;1.42;0.70;;;;;;;;;;5054900;28;20080;-64
2023/04/28 10:58:33;;;;;;;0.77;0.70;;;;;;;;;;5074042;28;20130;-64
2023/04/28 11:01:27;;;;;;;0.80;0.80;;;;;;;;;;5085316;28;20055;-64
2023/04/28 11:04:01;;;;;;;0.82;0.60;;;;;;;;;;5084948;28;20143;-64
2023/04/28 11:06:30;;;;;;;1.30;0.70;;;;;;;;;;5093011;28;20105;-65
2023/04/28 11:08:59;;;;;;;0.77;0.75;;;;;;;;;;5092516;28;20091;-64
2023/04/28 11:11:26;;;;;;;1.27;0.70;;;;;;;;;;5092897;28;20059;-64
2023/04/28 11:13:54;;;;;;;1.00;0.70;;;;;;;;;;5092657;28;20056;-63
2023/04/28 11:16:26;;;;;;;0.90;0.80;;;;;;;;;;5092205;28;20055;-65
2023/04/28 11:19:04;;;;;;;1.55;0.88;;;;;;;;;;5087782;28;20594;-65
2023/04/28 11:21:32;;;;;;;1.25;0.90;;;;;;;;;;5085863;28;20059;-65
2023/04/28 11:23:58;;;;;;;1.05;0.98;;;;;;;;;;5076665;28;20044;-65
2023/04/28 11:26:31;;;;;;;1.05;0.93;;;;;;;;;;5086380;28;20051;-65
2023/04/28 11:28:58;;;;;;;1.73;1.20;;;;;;;;;;5091384;28;20496;-65
2023/04/28 11:31:27;;;;;;;1.00;0.80;;;;;;;;;;5092787;28;20594;-65
2023/04/28 11:34:04;;;;;;;2.10;1.30;;;;;;;;;;5093843;28;20560;-65
2023/04/28 11:36:34;;;;;;;1.15;0.82;;;;;;;;;;5092715;28;20047;-65
2023/04/28 11:39:03;;;;;;;1.65;0.93;;;;;;;;;;5081165;28;20059;-64
2023/04/28 11:41:35;;;;;;;1.85;1.13;;;;;;;;;;5072313;28;20353;-65
2023/04/28 11:44:33;;;;;;;3.53;0.93;;;;;;;;;;5083051;28;20156;-69
2023/04/28 11:47:02;;;;;;;0.85;0.80;;;;;;;;;;5008917;28;20630;-65
2023/04/28 11:49:32;;;;;;;0.85;0.80;;;;;;;;;;5058095;28;20053;-64
2023/04/28 11:52:05;;;;;;;1.52;0.80;;;;;;;;;;5071276;28;20044;-64
2023/04/28 11:54:32;;;;;;;0.70;0.70;;;;;;;;;;5084129;28;20482;-65
2023/04/28 11:56:59;;;;;;;1.48;0.70;;;;;;;;;;5071747;28;20402;-64
2023/04/28 11:59:28;;;;;;;2.28;0.70;;;;;;;;;;5071337;28;20049;-65
2023/04/28 12:01:57;;;;;;;0.85;0.85;;;;;;;;;;5071462;28;20087;-64
2023/04/28 12:04:30;;;;;;;1.15;0.70;;;;;;;;;;5071387;28;20327;-65
2023/04/28 12:07:05;;;;;;;0.80;0.80;;;;;;;;;;5071607;28;20533;-64
2023/04/28 12:09:33;;;;;;;1.30;0.60;;;;;;;;;;5071000;28;20052;-65
2023/04/28 12:12:01;;;;;;;1.42;0.80;;;;;;;;;;5071211;28;20433;-65
2023/04/28 12:14:29;;;;;;;0.55;0.55;;;;;;;;;;5069768;28;20109;-66
2023/04/28 12:16:57;;;;;;;1.55;1.15;;;;;;;;;;5071903;28;20044;-65
2023/04/28 12:19:23;;;;;;;1.05;0.95;;;;;;;;;;5071613;28;20486;-65
2023/04/28 12:22:06;;;;;;;1.40;0.70;;;;;;;;;;5071337;28;20072;-65
2023/04/28 12:24:34;;;;;;;2.03;0.70;;;;;;;;;;5071109;28;20049;-64
2023/04/28 12:27:19;;;;;;;2.92;0.80;;;;;;;;;;5070945;28;20048;-65
2023/04/28 12:29:48;;;;;;;0.63;0.55;;;;;;;;;;5070918;28;20052;-65
2023/04/28 12:32:16;;;;;;;1.85;0.90;;;;;;;;;;5071378;28;20473;-65
2023/04/28 12:34:44;;;;;;;1.75;0.85;;;;;;;;;;5070550;28;20056;-65
2023/04/28 12:37:13;;;;;;;0.75;0.73;;;;;;;;;;5082990;28;20054;-65
2023/04/28 12:39:44;;;;;;;1.65;0.65;;;;;;;;;;5090595;28;20048;-65
2023/04/28 12:42:11;;;;;;;1.33;0.60;;;;;;;;;;5091321;28;20093;-65
2023/04/28 12:44:38;;;;;;;1.95;0.70;;;;;;;;;;5091127;28;20055;-66
2023/04/28 12:47:07;;;;;;;1.23;0.60;;;;;;;;;;5090439;28;20046;-65
2023/04/28 12:49:34;;;;;;;0.60;0.60;;;;;;;;;;5090958;28;20166;-65
2023/04/28 12:52:01;;;;;;;2.38;0.60;;;;;;;;;;5090882;28;20075;-65
2023/04/28 12:54:29;;;;;;;0.52;0.52;;;;;;;;;;5090847;28;20048;-65
2023/04/28 12:56:56;;;;;;;0.80;0.70;;;;;;;;;;5079794;28;20440;-65
2023/04/28 12:59:23;;;;;;;0.95;0.60;;;;;;;;;;5070704;28;20055;-65
2023/04/28 13:01:50;;;;;;;4.85;0.70;;;;;;;;;;5070180;28;20374;-64
2023/04/28 13:04:17;;;;;;;1.45;0.60;;;;;;;;;;5070360;28;20059;-65
2023/04/28 13:06:43;;;;;;;0.60;0.60;;;;;;;;;;5070022;28;20135;-65
2023/04/28 13:09:11;;;;;;;1.65;0.60;;;;;;;;;;5070190;28;20075;-66
2023/04/28 13:11:39;;;;;;;1.52;0.60;;;;;;;;;;5070179;28;20109;-65
2023/04/28 13:14:06;;;;;;;1.02;0.60;;;;;;;;;;5070338;28;20468;-65
2023/04/28 13:16:33;;;;;;;2.35;0.77;;;;;;;;;;5069946;28;20051;-65
2023/04/28 13:19:00;;;;;;;0.95;0.60;;;;;;;;;;5070646;28;20044;-66
2023/04/28 13:21:27;;;;;;;1.95;0.70;;;;;;;;;;5070597;28;20067;-65
2023/04/28 13:23:54;;;;;;;1.65;0.68;;;;;;;;;;5070070;28;20505;-65
2023/04/28 13:26:23;;;;;;;0.68;0.60;;;;;;;;;;5070175;28;20080;-65
2023/04/28 13:28:51;;;;;;;2.25;0.70;;;;;;;;;;5069536;28;20048;-65
2023/04/28 13:31:18;;;;;;;0.70;0.60;;;;;;;;;;5069974;28;20222;-65
2023/04/28 13:33:44;;;;;;;1.73;0.70;;;;;;;;;;5070000;28;20056;-65
2023/04/28 13:36:11;;;;;;;0.70;0.70;;;;;;;;;;5070149;28;20456;-65
2023/04/28 13:38:38;;;;;;;2.90;0.60;;;;;;;;;;5069566;28;20409;-65
2023/04/28 13:41:05;;;;;;;8.10;1.15;;;;;;;;;;5070061;28;20475;-65
2023/04/28 13:43:31;;;;;;;0.50;0.50;;;;;;;;;;5069411;28;20044;-65
2023/04/28 13:46:00;;;;;;;1.70;0.60;;;;;;;;;;5070103;28;20044;-65
2023/04/28 13:48:28;;;;;;;2.88;0.80;;;;;;;;;;5069715;28;20481;-65
2023/04/28 13:50:54;;;;;;;1.58;0.60;;;;;;;;;;5070264;28;20052;-65
2023/04/28 13:53:21;;;;;;;2.28;0.50;;;;;;;;;;5069696;28;20142;-65
2023/04/28 13:55:50;;;;;;;0.73;0.50;;;;;;;;;;5069706;28;20098;-65
2023/04/28 13:58:16;;;;;;;0.43;0.40;;;;;;;;;;5069039;28;20052;-65
2023/04/28 14:00:43;;;;;;;0.55;0.50;;;;;;;;;;5069930;28;20417;-65
2023/04/28 14:03:11;;;;;;;1.27;0.70;;;;;;;;;;5069471;28;20044;-65
2023/04/28 14:05:38;;;;;;;1.85;0.50;;;;;;;;;;5069875;28;20080;-65
2023/04/28 14:08:05;;;;;;;2.97;0.70;;;;;;;;;;5069808;28;20040;-65
2023/04/28 14:10:31;;;;;;;1.00;0.80;;;;;;;;;;5069912;28;20139;-65
2023/04/28 14:13:00;;;;;;;1.15;0.90;;;;;;;;;;5069477;28;20084;-65
2023/04/28 14:15:27;;;;;;;1.00;0.40;;;;;;;;;;5069543;28;20055;-65
2023/04/28 14:17:54;;;;;;;1.90;0.40;;;;;;;;;;5069982;28;20048;-65
2023/04/28 14:20:22;;;;;;;0.70;0.70;;;;;;;;;;5069520;28;20047;-65
2023/04/28 14:22:48;;;;;;;1.92;0.60;;;;;;;;;;5069853;28;20131;-65
2023/04/28 14:25:17;;;;;;;0.60;0.60;;;;;;;;;;5069243;28;20441;-68
2023/04/28 14:27:43;;;;;;;0.43;0.43;;;;;;;;;;5069867;28;20056;-68
2023/04/28 14:30:10;;;;;;;2.00;0.60;;;;;;;;;;5069671;28;20041;-68
2023/04/28 14:32:37;;;;;;;0.70;0.70;;;;;;;;;;5069997;28;20129;-68
2023/04/28 14:35:05;;;;;;;0.63;0.60;;;;;;;;;;5069402;28;20053;-68
2023/04/28 14:37:34;;;;;;;1.25;0.70;;;;;;;;;;5069536;28;20061;-68
2023/04/28 14:40:01;;;;;;;2.17;0.68;;;;;;;;;;5069367;28;20110;-68
2023/04/28 14:42:30;;;;;;;1.20;1.00;;;;;;;;;;5070208;28;20052;-68
2023/04/28 14:44:57;;;;;;;4.00;1.50;;;;;;;;;;5070514;28;20040;-69
2023/04/28 14:47:25;;;;;;;1.70;1.23;;;;;;;;;;5072949;28;20413;-68